Time;durP1;ratioP1;P1;durP2;ratioP2;P2;SDS_P1;SDS_P2;PMS_P1;PMS_P2;Temp;Humidity;BMP_temperature;BMP_pressure;BME280_temperature;BME280_humidity;BME280_pressure;Samples;Min_cycle;Max_cycle;Signal;HPM_P1;HPM_P2
2022/10/30 00:00:05;;;;;;;23.15;9.95;;;15.90;99.90;;;;;;5039291;28;20024;-68
2022/10/30 00:02:30;;;;;;;21.90;9.35;;;15.90;99.90;;;;;;5050984;28;20029;-68
2022/10/30 00:04:56;;;;;;;23.38;9.23;;;15.80;99.90;;;;;;5050249;28;20457;-68
2022/10/30 00:07:22;;;;;;;28.17;9.95;;;15.80;99.90;;;;;;5052146;28;20028;-68
2022/10/30 00:09:47;;;;;;;22.38;9.88;;;15.80;99.90;;;;;;5045940;28;20022;-69
2022/10/30 00:12:13;;;;;;;23.50;9.10;;;15.80;99.90;;;;;;5041307;28;20087;-68
2022/10/30 00:14:38;;;;;;;20.83;8.95;;;15.80;99.90;;;;;;5046747;28;20125;-68
2022/10/30 00:17:04;;;;;;;28.08;9.57;;;15.70;99.90;;;;;;5049131;28;20037;-67
2022/10/30 00:19:29;;;;;;;19.92;8.60;;;15.70;99.90;;;;;;5051138;28;20013;-68
2022/10/30 00:21:56;;;;;;;23.50;8.57;;;15.60;99.90;;;;;;5049453;28;20416;-68
2022/10/30 00:24:22;;;;;;;25.33;9.90;;;15.60;99.90;;;;;;5048785;28;20021;-68
2022/10/30 00:26:48;;;;;;;20.80;9.15;;;15.60;99.90;;;;;;5032734;28;20022;-67
2022/10/30 00:29:14;;;;;;;23.83;9.43;;;15.50;99.90;;;;;;5031923;28;20053;-68
2022/10/30 00:31:40;;;;;;;28.23;10.65;;;15.50;99.90;;;;;;5032029;28;20416;-68
2022/10/30 00:34:06;;;;;;;24.20;10.32;;;15.50;99.90;;;;;;5038097;28;20032;-66
2022/10/30 00:36:31;;;;;;;24.40;11.18;;;15.50;99.90;;;;;;5050084;28;20052;-67
2022/10/30 00:38:57;;;;;;;21.70;9.75;;;15.40;99.90;;;;;;5041578;28;20116;-67
2022/10/30 00:41:23;;;;;;;25.63;9.90;;;15.40;99.90;;;;;;5042569;28;20079;-66
2022/10/30 00:43:50;;;;;;;29.08;11.45;;;15.30;99.90;;;;;;5044196;28;20029;-67
2022/10/30 00:46:18;;;;;;;29.45;10.60;;;15.30;99.90;;;;;;5049271;28;20051;-67
2022/10/30 00:48:54;;;;;;;26.20;10.57;;;15.30;99.90;;;;;;5051182;28;20032;-67
2022/10/30 00:51:21;;;;;;;23.25;10.07;;;15.30;99.90;;;;;;5050303;28;20506;-67
2022/10/30 00:53:47;;;;;;;25.55;11.65;;;15.30;99.90;;;;;;5046937;28;20017;-66
2022/10/30 00:56:16;;;;;;;28.02;11.57;;;15.30;99.90;;;;;;5048595;28;20028;-66
2022/10/30 00:58:47;;;;;;;22.80;10.68;;;15.20;99.90;;;;;;5050601;28;20032;-66
2022/10/30 01:01:18;;;;;;;24.20;12.60;;;15.20;99.90;;;;;;5037220;28;20030;-68
2022/10/30 01:03:46;;;;;;;21.88;10.70;;;15.20;99.90;;;;;;5041032;28;20037;-67
2022/10/30 01:06:14;;;;;;;28.48;12.70;;;15.20;99.90;;;;;;5051861;28;20025;-68
2022/10/30 01:08:41;;;;;;;29.73;13.40;;;15.20;99.90;;;;;;5051263;28;20482;-68
2022/10/30 01:11:08;;;;;;;25.20;10.40;;;15.20;99.90;;;;;;5051479;28;20055;-67
2022/10/30 01:13:35;;;;;;;27.63;11.60;;;15.10;99.90;;;;;;5055523;28;20017;-67
2022/10/30 01:16:25;;;;;;;25.20;11.73;;;15.10;99.90;;;;;;5055009;28;20400;-67
2022/10/30 01:19:11;;;;;;;36.13;17.73;;;15.10;99.90;;;;;;5048925;28;20029;-67
2022/10/30 01:22:00;;;;;;;27.15;13.80;;;15.10;99.90;;;;;;5035688;28;20021;-67
2022/10/30 01:24:28;;;;;;;36.88;15.57;;;15.10;99.90;;;;;;5054594;28;20037;-67
2022/10/30 01:27:12;;;;;;;26.50;12.38;;;15.00;99.90;;;;;;5055148;28;20070;-67
2022/10/30 01:29:50;;;;;;;28.67;13.15;;;15.00;99.90;;;;;;5043017;28;20041;-66
2022/10/30 01:32:34;;;;;;;28.05;12.10;;;14.90;99.90;;;;;;5035068;28;20568;-67
2022/10/30 01:35:22;;;;;;;24.50;11.15;;;14.90;99.90;;;;;;5044383;28;20110;-66
2022/10/30 01:38:04;;;;;;;29.92;12.15;;;14.90;99.90;;;;;;5055061;28;20469;-67
2022/10/30 01:40:31;;;;;;;;;;;14.80;99.90;;;;;;5050623;28;20092;-67
2022/10/30 01:42:57;;;;;;;25.95;10.38;;;14.80;99.90;;;;;;5035061;28;19951;-67
2022/10/30 01:45:41;;;;;;;31.17;14.93;;;14.80;99.90;;;;;;5046745;28;20088;-67
2022/10/30 01:48:09;;;;;;;28.00;12.63;;;14.80;99.90;;;;;;5055009;28;20025;-67
2022/10/30 01:50:46;;;;;;;28.02;11.90;;;14.80;99.90;;;;;;5051937;28;20110;-67
2022/10/30 01:53:23;;;;;;;23.35;10.80;;;14.80;99.90;;;;;;5054076;28;20048;-67
2022/10/30 01:55:56;;;;;;;30.08;12.68;;;14.90;99.90;;;;;;5055031;28;20441;-67
2022/10/30 01:58:30;;;;;;;31.20;11.50;;;14.80;99.90;;;;;;5053547;28;20357;-67
2022/10/30 02:00:57;;;;;;;27.20;11.63;;;14.80;99.90;;;;;;5052869;28;20068;-67
2022/10/30 02:03:24;;;;;;;24.85;11.30;;;14.80;99.90;;;;;;5054756;28;20028;-67
2022/10/30 02:05:51;;;;;;;28.75;12.30;;;14.90;99.90;;;;;;5054318;28;20013;-67
2022/10/30 02:08:18;;;;;;;32.35;12.88;;;14.80;99.90;;;;;;5053557;28;20021;-67
2022/10/30 02:10:46;;;;;;;28.13;11.48;;;14.80;99.90;;;;;;5036172;28;20029;-67
2022/10/30 02:13:13;;;;;;;30.10;12.95;;;14.80;99.90;;;;;;5034527;28;20029;-67
2022/10/30 02:15:40;;;;;;;29.35;12.25;;;14.80;99.90;;;;;;5034165;28;20025;-68
2022/10/30 02:18:06;;;;;;;23.70;11.10;;;14.80;99.90;;;;;;5033928;28;20037;-67
2022/10/30 02:20:32;;;;;;;25.92;12.45;;;14.70;99.90;;;;;;5043119;28;20021;-67
2022/10/30 02:22:58;;;;;;;25.08;12.05;;;14.80;99.90;;;;;;5053390;28;20025;-67
2022/10/30 02:25:23;;;;;;;25.50;12.20;;;14.80;99.90;;;;;;5053711;28;20017;-67
2022/10/30 02:27:49;;;;;;;25.15;11.85;;;14.70;99.90;;;;;;5052119;28;20025;-67
2022/10/30 02:30:14;;;;;;;26.48;11.90;;;14.80;99.90;;;;;;5048989;28;20045;-67
2022/10/30 02:32:40;;;;;;;30.85;13.02;;;14.80;99.90;;;;;;5053270;28;20017;-67
2022/10/30 02:35:06;;;;;;;31.27;12.93;;;14.80;99.90;;;;;;5053362;28;20029;-68
2022/10/30 02:37:34;;;;;;;25.52;11.95;;;14.80;99.90;;;;;;5053423;28;20044;-67
2022/10/30 02:40:03;;;;;;;26.80;11.30;;;14.80;99.90;;;;;;5042798;28;20076;-68
2022/10/30 02:42:28;;;;;;;28.00;12.25;;;14.80;99.90;;;;;;5033115;28;20094;-68
2022/10/30 02:44:54;;;;;;;32.05;11.98;;;14.80;99.90;;;;;;5033665;28;20029;-67
2022/10/30 02:47:19;;;;;;;26.23;11.73;;;14.80;99.90;;;;;;5033805;28;20108;-67
2022/10/30 02:49:45;;;;;;;26.48;12.95;;;14.80;99.90;;;;;;5033299;28;20029;-68
2022/10/30 02:52:11;;;;;;;26.90;12.55;;;14.80;99.90;;;;;;5033490;28;20025;-68
2022/10/30 02:54:36;;;;;;;25.55;12.30;;;14.80;99.90;;;;;;5033465;28;20028;-67
2022/10/30 02:57:02;;;;;;;25.85;11.75;;;14.80;99.90;;;;;;5033083;28;20522;-67
2022/10/30 02:59:29;;;;;;;26.95;11.85;;;14.80;99.90;;;;;;5033133;28;20029;-67
2022/10/30 03:01:54;;;;;;;28.73;11.88;;;14.80;99.90;;;;;;5033590;28;20032;-67
2022/10/30 03:04:20;;;;;;;27.58;10.85;;;14.70;99.90;;;;;;5033392;28;20446;-67
2022/10/30 03:06:45;;;;;;;28.27;12.40;;;14.70;99.90;;;;;;5033357;28;20128;-66
2022/10/30 03:09:11;;;;;;;31.88;11.73;;;14.70;99.90;;;;;;5047069;28;20040;-68
2022/10/30 03:11:36;;;;;;;26.38;12.20;;;14.70;99.90;;;;;;5058739;28;20031;-68
2022/10/30 03:14:02;;;;;;;26.45;11.43;;;14.60;99.90;;;;;;5062230;28;20038;-67
2022/10/30 03:16:29;;;;;;;27.55;11.48;;;14.60;99.90;;;;;;5060051;28;20028;-66
2022/10/30 03:18:55;;;;;;;30.50;12.20;;;14.60;99.90;;;;;;5061156;28;20115;-66
2022/10/30 03:21:24;;;;;;;25.48;11.73;;;14.60;99.90;;;;;;5056644;28;20363;-68
2022/10/30 03:23:50;;;;;;;30.40;12.45;;;14.60;99.90;;;;;;5062646;28;20024;-68
2022/10/30 03:26:16;;;;;;;27.40;12.48;;;14.60;99.90;;;;;;5061325;28;20021;-67
2022/10/30 03:28:42;;;;;;;28.50;11.90;;;14.50;99.90;;;;;;5061580;28;20185;-68
2022/10/30 03:31:13;;;;;;;30.08;11.55;;;14.50;99.90;;;;;;5056223;28;20423;-68
2022/10/30 03:33:39;;;;;;;25.93;11.50;;;14.50;99.90;;;;;;5062324;28;20451;-67
2022/10/30 03:36:06;;;;;;;25.05;11.60;;;14.50;99.90;;;;;;5062341;28;20029;-68
2022/10/30 03:38:32;;;;;;;27.10;12.68;;;14.40;99.90;;;;;;5058143;28;20091;-67
2022/10/30 03:40:58;;;;;;;27.92;11.68;;;14.40;99.90;;;;;;5059013;28;20052;-68
2022/10/30 03:43:24;;;;;;;31.73;14.93;;;14.40;99.90;;;;;;5060062;28;20452;-68
2022/10/30 03:45:53;;;;;;;26.48;12.55;;;14.40;99.90;;;;;;5061988;28;20021;-68
2022/10/30 03:48:20;;;;;;;27.65;12.32;;;14.40;99.90;;;;;;5062185;28;20479;-68
2022/10/30 03:50:46;;;;;;;30.38;12.63;;;14.40;99.90;;;;;;5056957;28;20024;-68
2022/10/30 03:53:12;;;;;;;26.45;12.02;;;14.40;99.90;;;;;;5060111;28;20044;-67
2022/10/30 03:55:38;;;;;;;33.35;12.85;;;14.40;99.90;;;;;;5061030;28;20073;-67
2022/10/30 03:58:04;;;;;;;32.25;12.88;;;14.30;99.90;;;;;;5061888;28;20037;-68
2022/10/30 04:00:31;;;;;;;28.58;11.77;;;14.30;99.90;;;;;;5055676;28;20024;-67
2022/10/30 04:02:57;;;;;;;31.30;12.80;;;14.20;99.90;;;;;;5060914;28;20025;-67
2022/10/30 04:05:24;;;;;;;26.33;13.00;;;14.20;99.90;;;;;;5060620;28;20027;-68
2022/10/30 04:07:55;;;;;;;31.17;12.43;;;14.10;99.90;;;;;;5062207;28;20034;-68
2022/10/30 04:10:21;;;;;;;29.23;13.05;;;14.10;99.90;;;;;;5060223;28;20044;-67
2022/10/30 04:12:46;;;;;;;31.92;14.43;;;14.10;99.90;;;;;;5059729;28;20063;-68
2022/10/30 04:15:12;;;;;;;28.65;13.27;;;14.10;99.90;;;;;;5061899;28;20020;-68
2022/10/30 04:17:37;;;;;;;33.03;14.18;;;14.10;99.90;;;;;;5061270;28;20033;-67
2022/10/30 04:20:03;;;;;;;27.80;14.10;;;14.10;99.90;;;;;;5058384;28;20029;-67
2022/10/30 04:22:29;;;;;;;29.40;13.27;;;14.00;99.90;;;;;;5061911;28;20021;-67
2022/10/30 04:24:54;;;;;;;31.10;13.70;;;14.00;99.90;;;;;;5066919;28;20024;-67
2022/10/30 04:27:20;;;;;;;33.05;15.10;;;14.00;99.90;;;;;;5061850;28;20064;-68
2022/10/30 04:29:46;;;;;;;28.90;12.95;;;14.00;99.90;;;;;;5058218;28;20381;-67
2022/10/30 04:32:12;;;;;;;31.48;13.50;;;13.90;99.90;;;;;;5061545;28;20095;-67
2022/10/30 04:34:38;;;;;;;26.42;12.65;;;13.90;99.90;;;;;;5061591;28;20017;-67
2022/10/30 04:37:05;;;;;;;33.13;12.93;;;13.90;99.90;;;;;;5060040;28;20021;-67
2022/10/30 04:39:31;;;;;;;32.38;11.95;;;13.90;99.90;;;;;;5059275;28;20042;-68
2022/10/30 04:41:57;;;;;;;28.58;11.90;;;13.90;99.90;;;;;;5059590;28;20025;-68
2022/10/30 04:44:22;;;;;;;31.13;14.32;;;14.00;99.90;;;;;;5061318;28;20031;-67
2022/10/30 04:46:48;;;;;;;31.40;13.07;;;14.00;99.90;;;;;;5063842;28;20024;-67
2022/10/30 04:49:14;;;;;;;28.33;14.02;;;14.00;99.90;;;;;;5055444;28;20035;-67
2022/10/30 04:51:39;;;;;;;30.23;13.20;;;14.00;99.90;;;;;;5057563;28;20114;-66
2022/10/30 04:54:05;;;;;;;29.35;13.85;;;14.00;99.90;;;;;;5063320;28;20035;-67
2022/10/30 04:56:31;;;;;;;31.77;13.75;;;14.00;99.90;;;;;;5064969;28;20394;-67
2022/10/30 04:58:58;;;;;;;28.27;14.00;;;14.00;99.90;;;;;;5062368;28;20044;-67
2022/10/30 05:01:23;;;;;;;30.92;13.80;;;14.00;99.90;;;;;;5062726;28;20029;-67
2022/10/30 05:03:49;;;;;;;28.63;13.10;;;14.00;99.90;;;;;;5065447;28;20017;-68
2022/10/30 05:06:17;;;;;;;30.73;14.15;;;14.00;99.90;;;;;;5065278;28;20008;-67
2022/10/30 05:08:43;;;;;;;29.52;14.48;;;14.00;99.90;;;;;;5061033;28;20036;-67
2022/10/30 05:11:08;;;;;;;32.75;13.55;;;14.00;99.90;;;;;;5064788;28;20021;-67
2022/10/30 05:13:34;;;;;;;29.73;14.20;;;13.90;99.90;;;;;;5061904;28;20028;-67
2022/10/30 05:15:59;;;;;;;31.30;13.70;;;13.90;99.90;;;;;;5063777;28;20411;-66
2022/10/30 05:18:25;;;;;;;29.08;13.20;;;13.80;99.90;;;;;;5061156;28;20378;-67
2022/10/30 05:20:50;;;;;;;32.30;14.68;;;13.90;99.90;;;;;;5063969;28;20100;-67
2022/10/30 05:23:16;;;;;;;32.53;14.38;;;13.80;99.90;;;;;;5063025;28;20036;-67
2022/10/30 05:25:42;;;;;;;34.17;14.80;;;13.80;99.90;;;;;;5064263;28;20021;-67
2022/10/30 05:28:09;;;;;;;33.53;13.20;;;13.80;99.90;;;;;;5058116;28;20025;-67
2022/10/30 05:30:35;;;;;;;34.13;14.45;;;13.70;99.90;;;;;;5064721;28;20026;-67
2022/10/30 05:33:02;;;;;;;32.38;15.23;;;13.70;99.90;;;;;;5058816;28;20111;-68
2022/10/30 05:35:31;;;;;;;30.13;14.43;;;13.80;99.90;;;;;;5057734;28;20408;-68
2022/10/30 05:37:57;;;;;;;37.80;15.73;;;13.80;99.90;;;;;;5064482;28;20357;-67
2022/10/30 05:40:23;;;;;;;33.67;15.10;;;13.80;99.90;;;;;;5062730;28;20024;-68
2022/10/30 05:42:50;;;;;;;37.13;16.42;;;13.80;99.90;;;;;;5061938;28;20106;-68
2022/10/30 05:45:16;;;;;;;35.00;15.32;;;13.70;99.90;;;;;;5061565;28;20400;-67
2022/10/30 05:47:42;;;;;;;35.75;15.20;;;13.70;99.90;;;;;;5053750;28;20078;-68
2022/10/30 05:50:10;;;;;;;34.67;15.88;;;13.70;99.90;;;;;;5036140;28;20068;-67
2022/10/30 05:52:36;;;;;;;38.03;15.75;;;13.70;99.90;;;;;;5042446;28;20033;-68
2022/10/30 05:55:01;;;;;;;32.00;15.50;;;13.60;99.90;;;;;;5043172;28;20036;-68
2022/10/30 05:57:28;;;;;;;32.83;14.68;;;13.60;99.90;;;;;;5038082;28;20032;-67
2022/10/30 05:59:54;;;;;;;39.03;16.15;;;13.60;99.90;;;;;;5052692;28;20079;-67
2022/10/30 06:02:19;;;;;;;33.58;14.43;;;13.50;99.90;;;;;;5054618;28;20064;-67
2022/10/30 06:04:45;;;;;;;43.72;15.00;;;13.50;99.90;;;;;;5052320;28;20024;-67
2022/10/30 06:07:11;;;;;;;31.30;12.98;;;13.50;99.90;;;;;;5053767;28;20024;-67
2022/10/30 06:09:36;;;;;;;31.95;15.23;;;13.50;99.90;;;;;;5035888;28;20026;-67
2022/10/30 06:12:02;;;;;;;33.53;16.33;;;13.50;99.90;;;;;;5039891;28;20029;-67
2022/10/30 06:14:28;;;;;;;31.67;14.45;;;13.40;99.90;;;;;;5046370;28;20379;-67
2022/10/30 06:16:53;;;;;;;32.60;14.35;;;13.40;99.90;;;;;;5037919;28;20404;-67
2022/10/30 06:19:19;;;;;;;32.90;16.35;;;13.50;99.90;;;;;;5054136;28;20103;-67
2022/10/30 06:21:45;;;;;;;32.85;15.10;;;13.50;99.90;;;;;;5052250;28;20369;-67
2022/10/30 06:24:10;;;;;;;30.40;16.08;;;13.50;99.90;;;;;;5034025;28;20052;-68
2022/10/30 06:26:36;;;;;;;36.17;14.57;;;13.50;99.90;;;;;;5053958;28;20385;-67
2022/10/30 06:29:02;;;;;;;30.00;15.05;;;13.40;99.90;;;;;;5033700;28;20042;-67
2022/10/30 06:31:27;;;;;;;35.97;16.63;;;13.40;99.90;;;;;;5045274;28;20029;-67
2022/10/30 06:33:53;;;;;;;31.48;15.73;;;13.40;99.90;;;;;;5035262;28;20067;-67
2022/10/30 06:36:18;;;;;;;36.38;15.30;;;13.40;99.90;;;;;;5050624;28;20333;-67
2022/10/30 06:38:44;;;;;;;33.60;14.73;;;13.40;99.90;;;;;;5038671;28;20384;-67
2022/10/30 06:41:09;;;;;;;34.35;16.40;;;13.40;99.90;;;;;;5036411;28;20086;-67
2022/10/30 06:43:35;;;;;;;38.40;15.98;;;13.40;99.90;;;;;;5051979;28;20020;-67
2022/10/30 06:46:01;;;;;;;34.20;16.23;;;13.40;99.90;;;;;;5049485;28;20104;-67
2022/10/30 06:48:26;;;;;;;33.58;15.68;;;13.50;99.90;;;;;;5038946;28;20356;-67
2022/10/30 06:50:56;;;;;;;32.15;14.55;;;13.50;99.90;;;;;;5052598;28;20025;-67
2022/10/30 06:53:22;;;;;;;28.40;12.70;;;13.50;99.90;;;;;;5053625;28;20504;-67
2022/10/30 06:55:55;;;;;;;34.97;14.50;;;13.50;99.90;;;;;;5048102;28;20108;-67
2022/10/30 06:58:21;;;;;;;38.95;15.65;;;13.50;99.90;;;;;;5035656;28;20048;-67
2022/10/30 07:00:46;;;;;;;32.40;14.27;;;13.60;99.90;;;;;;5049942;28;20021;-68
2022/10/30 07:03:12;;;;;;;31.58;14.18;;;13.60;99.90;;;;;;5033598;28;20438;-67
2022/10/30 07:05:37;;;;;;;32.17;14.32;;;13.70;99.90;;;;;;5043799;28;20021;-68
2022/10/30 07:08:03;;;;;;;36.30;14.98;;;13.70;99.90;;;;;;5046450;28;20021;-67
2022/10/30 07:10:29;;;;;;;32.50;15.20;;;13.80;99.90;;;;;;5051412;28;20346;-67
2022/10/30 07:12:55;;;;;;;33.47;15.93;;;13.80;99.90;;;;;;5048993;28;20025;-67
2022/10/30 07:15:21;;;;;;;37.42;14.48;;;13.90;99.90;;;;;;5039523;28;20036;-67
2022/10/30 07:18:05;;;;;;;32.13;16.33;;;14.00;99.90;;;;;;5051578;28;20036;-67
2022/10/30 07:20:33;;;;;;;32.47;15.38;;;14.10;99.90;;;;;;5032705;28;20030;-68
2022/10/30 07:22:59;;;;;;;32.67;14.93;;;14.20;99.90;;;;;;5048683;28;20044;-67
2022/10/30 07:25:25;;;;;;;30.40;13.43;;;14.30;99.90;;;;;;5035802;28;20548;-68
2022/10/30 07:27:51;;;;;;;31.48;14.43;;;14.40;99.90;;;;;;5050640;28;20068;-67
2022/10/30 07:30:20;;;;;;;32.97;14.65;;;14.50;99.90;;;;;;5033313;28;20484;-67
2022/10/30 07:32:54;;;;;;;27.67;13.75;;;14.60;99.90;;;;;;5049140;28;20033;-67
2022/10/30 07:35:20;;;;;;;36.25;16.58;;;14.70;99.90;;;;;;5033080;28;20041;-67
2022/10/30 07:37:45;;;;;;;29.45;13.75;;;14.80;99.90;;;;;;5034209;28;20033;-67
2022/10/30 07:40:11;;;;;;;28.27;13.48;;;14.90;99.90;;;;;;5052361;28;20024;-67
2022/10/30 07:42:37;;;;;;;27.63;12.98;;;15.00;99.90;;;;;;5040517;28;20028;-67
2022/10/30 07:45:02;;;;;;;25.48;12.10;;;15.00;99.90;;;;;;5032179;28;20571;-68
2022/10/30 07:47:28;;;;;;;23.42;11.93;;;15.00;99.90;;;;;;5042988;28;20056;-67
2022/10/30 07:49:53;;;;;;;26.90;11.63;;;15.10;99.90;;;;;;5052746;28;20025;-67
2022/10/30 07:52:19;;;;;;;27.60;12.60;;;15.20;99.90;;;;;;5051198;28;20029;-67
2022/10/30 07:54:45;;;;;;;29.90;12.70;;;15.20;99.90;;;;;;5034475;28;20036;-67
2022/10/30 07:57:10;;;;;;;28.92;13.30;;;15.20;99.90;;;;;;5036181;28;20465;-67
2022/10/30 07:59:36;;;;;;;26.60;13.15;;;15.20;99.90;;;;;;5032280;28;20037;-66
2022/10/30 08:02:01;;;;;;;26.75;12.88;;;15.20;99.90;;;;;;5037258;28;20029;-66
2022/10/30 08:04:34;;;;;;;29.58;12.88;;;15.30;99.90;;;;;;5051427;28;20437;-67
2022/10/30 08:07:00;;;;;;;30.25;11.70;;;15.40;99.90;;;;;;5048849;28;20029;-66
2022/10/30 08:09:25;;;;;;;28.77;12.55;;;15.60;99.90;;;;;;5037501;28;20393;-66
2022/10/30 08:11:51;;;;;;;23.92;10.45;;;15.80;99.90;;;;;;5045352;28;20047;-66
2022/10/30 08:14:16;;;;;;;25.17;11.40;;;16.00;99.90;;;;;;5057856;28;20035;-65
2022/10/30 08:16:42;;;;;;;23.60;10.50;;;16.20;99.90;;;;;;5061516;28;20021;-66
2022/10/30 08:19:07;;;;;;;23.02;9.45;;;16.40;99.90;;;;;;5063771;28;20040;-67
2022/10/30 08:21:33;;;;;;;21.48;10.70;;;16.60;99.90;;;;;;5064816;28;20021;-66
2022/10/30 08:23:59;;;;;;;25.33;9.98;;;16.70;99.90;;;;;;5063849;28;20452;-66
2022/10/30 08:26:24;;;;;;;22.30;10.52;;;16.90;99.90;;;;;;5066442;28;20107;-66
2022/10/30 08:28:50;;;;;;;22.42;9.40;;;17.00;99.90;;;;;;5062837;28;20463;-66
2022/10/30 08:31:15;;;;;;;25.85;9.70;;;17.10;99.90;;;;;;5061966;28;20021;-66
2022/10/30 08:33:41;;;;;;;26.45;10.40;;;17.30;99.90;;;;;;5064164;28;20036;-67
2022/10/30 08:36:07;;;;;;;23.15;9.82;;;17.40;99.90;;;;;;5060197;28;20029;-67
2022/10/30 08:38:33;;;;;;;23.67;9.75;;;17.50;99.90;;;;;;5053840;28;20384;-66
2022/10/30 08:41:00;;;;;;;24.38;10.10;;;17.60;99.90;;;;;;5039787;28;20026;-67
2022/10/30 08:43:26;;;;;;;26.73;11.23;;;17.70;99.90;;;;;;5037903;28;20025;-67
2022/10/30 08:45:52;;;;;;;24.40;10.10;;;17.90;99.90;;;;;;5039406;28;20343;-67
2022/10/30 08:48:17;;;;;;;21.13;9.35;;;18.10;99.90;;;;;;5051697;28;20024;-67
2022/10/30 08:50:44;;;;;;;21.45;9.73;;;18.50;99.90;;;;;;5055017;28;20025;-67
2022/10/30 08:53:14;;;;;;;20.15;8.70;;;18.90;99.90;;;;;;5037916;28;20029;-67
2022/10/30 08:55:40;;;;;;;25.45;9.77;;;19.30;99.90;;;;;;5058251;28;20460;-67
2022/10/30 08:58:05;;;;;;;21.00;9.63;;;19.60;99.90;;;;;;5055393;28;20040;-66
2022/10/30 09:00:31;;;;;;;19.70;8.98;;;19.90;99.90;;;;;;5069387;28;20041;-67
2022/10/30 09:02:57;;;;;;;21.35;9.82;;;20.10;99.90;;;;;;5054515;28;20072;-68
2022/10/30 09:05:22;;;;;;;21.60;9.63;;;20.20;99.90;;;;;;5055294;28;20052;-66
2022/10/30 09:07:48;;;;;;;21.25;9.50;;;20.30;99.90;;;;;;5050431;28;20013;-67
2022/10/30 09:10:14;;;;;;;24.38;8.93;;;20.30;99.90;;;;;;5035718;28;20347;-67
2022/10/30 09:12:40;;;;;;;20.80;9.75;;;20.40;99.90;;;;;;5056572;28;20033;-67
2022/10/30 09:15:06;;;;;;;20.92;8.52;;;20.70;99.90;;;;;;5055554;28;20075;-67
2022/10/30 09:17:32;;;;;;;19.20;9.23;;;21.10;99.90;;;;;;5053393;28;20040;-67
2022/10/30 09:19:58;;;;;;;19.75;9.00;;;21.40;99.90;;;;;;5054315;28;20025;-66
2022/10/30 09:22:23;;;;;;;19.85;8.45;;;21.70;99.90;;;;;;5059730;28;20114;-67
2022/10/30 09:24:49;;;;;;;21.63;8.43;;;22.10;99.90;;;;;;5065584;28;20344;-67
2022/10/30 09:27:14;;;;;;;21.17;8.10;;;22.40;99.90;;;;;;5058113;28;20059;-67
2022/10/30 09:29:40;;;;;;;21.40;8.35;;;22.50;99.90;;;;;;5050800;28;20049;-67
2022/10/30 09:32:08;;;;;;;16.67;6.80;;;22.60;99.90;;;;;;5045159;28;20032;-67
2022/10/30 09:34:34;;;;;;;19.00;7.97;;;22.70;99.90;;;;;;5053546;28;20044;-67
2022/10/30 09:37:00;;;;;;;17.58;8.30;;;22.60;99.90;;;;;;5042731;28;20088;-67
2022/10/30 09:39:58;;;;;;;20.17;9.18;;;22.80;99.90;;;;;;5053888;28;20025;-67
2022/10/30 09:42:47;;;;;;;21.15;8.48;;;23.10;99.90;;;;;;5062017;28;20029;-67
2022/10/30 09:45:29;;;;;;;24.50;8.10;;;23.60;99.90;;;;;;5062322;28;20040;-67
2022/10/30 09:48:04;;;;;;;23.35;8.68;;;23.90;99.90;;;;;;5057700;28;20065;-68
2022/10/30 09:50:54;;;;;;;19.80;8.68;;;24.40;99.90;;;;;;5039834;28;20108;-67
2022/10/30 09:53:30;;;;;;;22.08;7.78;;;24.90;99.90;;;;;;5053955;28;20025;-67
2022/10/30 09:56:18;;;;;;;19.13;8.35;;;25.30;99.90;;;;;;5059579;28;20027;-67
2022/10/30 09:59:07;;;;;;;20.92;8.77;;;25.40;99.90;;;;;;5034250;28;20029;-67
2022/10/30 10:01:57;;;;;;;18.27;8.02;;;25.30;99.90;;;;;;5039731;28;20116;-67
2022/10/30 10:04:47;;;;;;;17.98;8.40;;;25.30;99.90;;;;;;5049988;28;20033;-67
2022/10/30 10:07:23;;;;;;;23.55;10.10;;;25.40;99.90;;;;;;5040963;28;20419;-67
2022/10/30 10:09:53;;;;;;;20.25;8.18;;;25.50;99.90;;;;;;5051941;28;20030;-67
2022/10/30 10:12:30;;;;;;;20.63;9.18;;;25.60;99.90;;;;;;5055005;28;20021;-67
2022/10/30 10:14:59;;;;;;;20.25;8.45;;;25.70;99.90;;;;;;5034738;28;20013;-67
2022/10/30 10:17:35;;;;;;;20.92;8.52;;;26.00;99.90;;;;;;5041671;28;20074;-67
2022/10/30 10:20:02;;;;;;;19.05;7.28;;;26.30;99.90;;;;;;5049747;28;20036;-67
2022/10/30 10:22:47;;;;;;;20.73;7.00;;;26.50;99.00;;;;;;5039652;28;20473;-67
2022/10/30 10:25:14;;;;;;;20.00;7.28;;;26.60;98.70;;;;;;5056613;28;20448;-66
2022/10/30 10:28:02;;;;;;;16.35;6.82;;;26.50;98.60;;;;;;5047083;28;20488;-66
2022/10/30 10:30:51;;;;;;;17.98;6.68;;;26.30;98.80;;;;;;5042191;28;20040;-67
2022/10/30 10:33:42;;;;;;;17.38;6.93;;;26.20;99.20;;;;;;5042433;28;20017;-67
2022/10/30 10:36:16;;;;;;;22.33;8.07;;;26.00;99.30;;;;;;5062250;28;20033;-67
2022/10/30 10:39:03;;;;;;;19.67;7.78;;;26.10;99.30;;;;;;5046530;28;20282;-67
2022/10/30 10:41:50;;;;;;;19.00;6.88;;;26.20;99.50;;;;;;5047586;28;20032;-67
2022/10/30 10:44:30;;;;;;;18.38;7.25;;;26.30;99.20;;;;;;5040252;28;20419;-67
2022/10/30 10:47:02;;;;;;;16.50;6.75;;;26.50;99.10;;;;;;5041678;28;20029;-67
2022/10/30 10:50:16;;;;;;;17.67;6.72;;;26.60;98.80;;;;;;5042236;28;20205;-68
2022/10/30 10:52:52;;;;;;;18.40;7.40;;;26.70;98.70;;;;;;5039756;28;20033;-67
2022/10/30 10:55:32;;;;;;;18.95;6.78;;;26.50;98.70;;;;;;5040606;28;20022;-68
2022/10/30 10:58:27;;;;;;;17.85;6.00;;;26.40;98.90;;;;;;5062199;28;20028;-67
2022/10/30 11:00:54;;;;;;;18.75;6.65;;;26.60;98.80;;;;;;5040813;28;20057;-68
2022/10/30 11:03:26;;;;;;;15.57;6.55;;;26.90;98.50;;;;;;5053064;28;20025;-68
2022/10/30 11:05:55;;;;;;;16.13;6.28;;;26.90;98.20;;;;;;5037068;28;20112;-67
2022/10/30 11:08:32;;;;;;;19.88;7.05;;;26.90;98.40;;;;;;5040820;28;20030;-67
2022/10/30 11:11:00;;;;;;;20.63;6.97;;;26.80;98.20;;;;;;5058315;28;20372;-67
2022/10/30 11:13:32;;;;;;;14.93;6.20;;;26.70;98.70;;;;;;5057755;28;20093;-67
2022/10/30 11:16:52;;;;;;;16.33;6.43;;;26.80;98.60;;;;;;5041129;28;20033;-67
2022/10/30 11:19:29;;;;;;;14.32;6.20;;;26.90;98.60;;;;;;5008928;28;20041;-67
2022/10/30 11:21:57;;;;;;;13.32;5.65;;;26.90;98.60;;;;;;5032647;28;20048;-67
2022/10/30 11:24:34;;;;;;;16.05;5.78;;;27.00;98.10;;;;;;5036454;28;20021;-67
2022/10/30 11:27:17;;;;;;;16.60;6.20;;;26.90;98.50;;;;;;5034562;28;20049;-67
2022/10/30 11:29:55;;;;;;;14.15;5.65;;;26.80;98.20;;;;;;5036107;28;20053;-66
2022/10/30 11:32:26;;;;;;;18.10;6.05;;;26.70;98.40;;;;;;5049865;28;20112;-67
2022/10/30 11:35:01;;;;;;;13.85;6.18;;;26.70;98.60;;;;;;5049974;28;20028;-67
2022/10/30 11:37:34;;;;;;;20.42;6.20;;;26.90;98.70;;;;;;5040465;28;20466;-67
2022/10/30 11:40:03;;;;;;;22.42;6.70;;;26.90;98.20;;;;;;5036631;28;20420;-67
2022/10/30 11:42:29;;;;;;;17.70;5.85;;;26.90;98.50;;;;;;5050334;28;20045;-67
2022/10/30 11:44:55;;;;;;;14.60;5.95;;;27.10;98.70;;;;;;5047046;28;20067;-68
2022/10/30 11:47:34;;;;;;;16.15;6.22;;;27.20;97.90;;;;;;5046473;28;20036;-68
2022/10/30 11:50:03;;;;;;;19.08;6.80;;;27.30;97.90;;;;;;5045332;28;20774;-68
2022/10/30 11:52:36;;;;;;;20.15;6.88;;;27.40;98.00;;;;;;5036476;28;20028;-68
2022/10/30 11:55:17;;;;;;;14.68;6.43;;;27.40;97.80;;;;;;5040009;28;20029;-67
2022/10/30 11:57:51;;;;;;;16.40;6.45;;;27.40;97.50;;;;;;5045324;28;20055;-68
2022/10/30 12:00:22;;;;;;;18.17;6.40;;;27.40;97.60;;;;;;5052635;28;20048;-67
2022/10/30 12:02:52;;;;;;;16.40;5.75;;;27.30;97.80;;;;;;5065021;28;20387;-67
2022/10/30 12:05:32;;;;;;;17.45;6.40;;;27.20;97.80;;;;;;5049767;28;20475;-67
2022/10/30 12:08:07;;;;;;;17.70;6.07;;;27.10;97.60;;;;;;5032438;28;20017;-67
2022/10/30 12:10:51;;;;;;;17.33;5.85;;;26.90;97.60;;;;;;5031522;28;20029;-67
2022/10/30 12:13:19;;;;;;;18.58;5.85;;;26.80;97.60;;;;;;5028979;28;20033;-67
2022/10/30 12:16:01;;;;;;;17.20;6.72;;;26.60;97.40;;;;;;5031728;28;20029;-67
2022/10/30 12:18:27;;;;;;;16.30;5.40;;;26.30;97.30;;;;;;5047068;28;20028;-68
2022/10/30 12:20:56;;;;;;;15.55;5.32;;;26.00;97.60;;;;;;5051033;28;20029;-67
2022/10/30 12:23:24;;;;;;;15.98;6.28;;;25.60;97.60;;;;;;5048399;28;20033;-67
2022/10/30 12:25:56;;;;;;;15.50;5.45;;;25.30;97.90;;;;;;5051881;28;20083;-66
2022/10/30 12:28:33;;;;;;;19.75;5.55;;;24.90;98.20;;;;;;5050818;28;20025;-66
2022/10/30 12:31:19;;;;;;;14.68;5.30;;;24.70;98.40;;;;;;5052103;28;20029;-66
2022/10/30 12:33:51;;;;;;;16.58;6.38;;;24.50;98.90;;;;;;5048722;28;20031;-66
2022/10/30 12:36:21;;;;;;;17.50;6.05;;;24.30;98.90;;;;;;5050083;28;20021;-67
2022/10/30 12:38:55;;;;;;;18.38;6.65;;;24.20;99.20;;;;;;5051840;28;20033;-67
2022/10/30 12:41:41;;;;;;;19.15;6.63;;;24.00;99.50;;;;;;5048887;28;20029;-67